Time;durP1;ratioP1;P1;durP2;ratioP2;P2;SDS_P1;SDS_P2;PMS_P1;PMS_P2;Temp;Humidity;BMP_temperature;BMP_pressure;BME280_temperature;BME280_humidity;BME280_pressure;Samples;Min_cycle;Max_cycle;Signal;HPM_P1;HPM_P2
2022/03/05 00:01:09;;;;;;;0.20;0.10;;;;;;;1.47;89.69;100656.44;5025638;28;20488;-51
2022/03/05 00:03:36;;;;;;;0.20;0.20;;;;;;;1.50;90.32;100668.72;5033924;28;20471;-50
2022/03/05 00:06:03;;;;;;;0.20;0.20;;;;;;;1.50;90.35;100658.22;5034187;28;20452;-50
2022/03/05 00:08:29;;;;;;;0.20;0.10;;;;;;;1.47;89.21;100666.06;5034313;28;20447;-50
2022/03/05 00:10:56;;;;;;;0.20;0.10;;;;;;;1.47;90.48;100663.44;5033847;28;20852;-50
2022/03/05 00:13:23;;;;;;;0.30;0.20;;;;;;;1.64;89.57;100666.28;5033823;28;20518;-51
2022/03/05 00:15:51;;;;;;;0.20;0.10;;;;;;;1.47;89.57;100669.56;5026708;28;21090;-51
2022/03/05 00:18:17;;;;;;;0.20;0.10;;;;;;;1.45;89.94;100666.03;5033858;28;20498;-51
2022/03/05 00:20:45;;;;;;;0.20;0.10;;;;;;;1.47;89.98;100666.06;5033903;28;20509;-51
2022/03/05 00:23:16;;;;;;;0.20;0.10;;;;;;;1.38;89.97;100672.06;5033459;28;20472;-51
2022/03/05 00:25:43;;;;;;;0.30;0.20;;;;;;;1.56;89.52;100674.06;5033792;28;20444;-51
2022/03/05 00:28:10;;;;;;;1.30;0.93;;;;;;;1.37;89.92;100669.38;5033816;28;20944;-51
2022/03/05 00:30:37;;;;;;;0.30;0.20;;;;;;;1.29;90.36;100668.41;5010624;28;20559;-50
2022/03/05 00:33:04;;;;;;;0.20;0.10;;;;;;;1.34;89.89;100675.47;5033521;28;20491;-51
2022/03/05 00:35:31;;;;;;;0.20;0.10;;;;;;;1.37;90.57;100674.63;5030840;28;20515;-50
2022/03/05 00:37:58;;;;;;;0.20;0.10;;;;;;;1.50;88.89;100681.81;5032425;28;20506;-50
2022/03/05 00:40:25;;;;;;;0.30;0.10;;;;;;;1.47;89.94;100677.41;5031161;28;20455;-51
2022/03/05 00:42:52;;;;;;;0.20;0.10;;;;;;;1.27;89.41;100680.59;5030298;28;20847;-50
2022/03/05 00:45:18;;;;;;;0.20;0.10;;;;;;;1.25;89.84;100679.72;5029212;28;20480;-50
2022/03/05 00:47:45;;;;;;;0.20;0.10;;;;;;;1.36;87.92;100678.97;5024925;28;20448;-50
2022/03/05 00:50:11;;;;;;;0.20;0.10;;;;;;;1.59;88.66;100681.06;5033558;28;20455;-51
2022/03/05 00:52:38;;;;;;;0.20;0.10;;;;;;;1.56;89.12;100681.03;5033428;28;20467;-50
2022/03/05 00:55:06;;;;;;;0.20;0.10;;;;;;;1.60;87.98;100677.59;5033152;28;20541;-51
2022/03/05 00:57:32;;;;;;;0.20;0.10;;;;;;;1.62;87.83;100675.84;5033268;28;20452;-51
2022/03/05 00:59:59;;;;;;;0.30;0.20;;;;;;;1.57;87.19;100677.53;5029902;28;20488;-51
2022/03/05 01:02:26;;;;;;;1.80;1.70;;;;;;;1.50;88.24;100689.66;5025011;28;20455;-51
2022/03/05 01:04:52;;;;;;;0.20;0.10;;;;;;;1.41;88.39;100679.94;5032968;28;20503;-50
2022/03/05 01:07:19;;;;;;;0.20;0.10;;;;;;;1.36;88.24;100680.72;5033268;28;20820;-50
2022/03/05 01:09:45;;;;;;;0.20;0.10;;;;;;;1.31;88.04;100680.66;5032022;28;20498;-50
2022/03/05 01:12:12;;;;;;;18.57;2.00;;;;;;;1.24;88.82;100673.59;5024489;28;20456;-51
2022/03/05 01:14:39;;;;;;;0.20;0.10;;;;;;;1.20;88.66;100679.63;5032644;28;20503;-50
2022/03/05 01:17:06;;;;;;;0.20;0.10;;;;;;;1.01;88.75;100672.34;5024650;28;20466;-51
2022/03/05 01:19:33;;;;;;;0.20;0.10;;;;;;;0.85;88.65;100674.72;5032925;28;20502;-51
2022/03/05 01:22:00;;;;;;;0.20;0.10;;;;;;;0.83;88.88;100675.53;5025132;28;20806;-51
2022/03/05 01:24:26;;;;;;;0.43;0.43;;;;;;;0.80;90.26;100672.84;5032583;28;20471;-50
2022/03/05 01:26:53;;;;;;;0.20;0.10;;;;;;;0.63;89.59;100671.69;5032643;28;20479;-50
2022/03/05 01:29:19;;;;;;;1.40;1.30;;;;;;;0.73;90.62;100666.66;5032884;28;20509;-51
2022/03/05 01:31:46;;;;;;;0.20;0.10;;;;;;;0.63;90.93;100666.44;5027712;28;20463;-50
2022/03/05 01:34:13;;;;;;;0.40;0.40;;;;;;;0.70;89.95;100670.97;5031919;28;20482;-51
2022/03/05 01:36:40;;;;;;;3.07;0.70;;;;;;;0.69;90.79;100670.06;5029922;28;20443;-50
2022/03/05 01:39:06;;;;;;;0.20;0.10;;;;;;;0.75;90.91;100669.28;5032699;28;20455;-50
2022/03/05 01:41:33;;;;;;;0.20;0.10;;;;;;;0.56;90.39;100668.97;5027503;28;20453;-50
2022/03/05 01:44:00;;;;;;;0.20;0.17;;;;;;;0.51;90.79;100668.00;5032782;28;20533;-51
2022/03/05 01:46:32;;;;;;;0.20;0.10;;;;;;;0.44;89.21;100667.88;5032558;28;20448;-51
2022/03/05 01:48:58;;;;;;;0.20;0.20;;;;;;;0.50;90.32;100665.34;5024925;28;20861;-51
2022/03/05 01:51:25;;;;;;;0.20;0.10;;;;;;;0.34;90.13;100660.69;5014091;28;20456;-50
2022/03/05 01:53:52;;;;;;;0.20;0.10;;;;;;;0.31;90.84;100663.28;5025234;28;20511;-50
2022/03/05 01:56:19;;;;;;;0.60;0.50;;;;;;;0.24;90.35;100660.53;5027511;28;21003;-50
2022/03/05 01:58:46;;;;;;;0.20;0.10;;;;;;;0.03;91.60;100660.13;5032569;28;20501;-50
2022/03/05 02:01:13;;;;;;;0.20;0.10;;;;;;;0.02;90.26;100673.16;5020595;28;20453;-51
2022/03/05 02:03:41;;;;;;;0.20;0.10;;;;;;;-0.10;90.77;100671.19;5032294;28;20479;-50
2022/03/05 02:06:07;;;;;;;0.30;0.30;;;;;;;-0.08;90.61;100674.69;5032091;28;20447;-50
2022/03/05 02:08:34;;;;;;;0.20;0.10;;;;;;;-0.40;91.63;100680.13;5024739;28;20451;-53
2022/03/05 02:11:01;;;;;;;0.20;0.20;;;;;;;-0.06;92.03;100675.59;5032316;28;20452;-50
2022/03/05 02:13:28;;;;;;;0.30;0.10;;;;;;;-0.20;91.91;100671.81;5031993;28;20480;-50
2022/03/05 02:15:57;;;;;;;0.20;0.10;;;;;;;-0.29;91.38;100664.66;5032074;28;20554;-51
2022/03/05 02:18:25;;;;;;;1.03;1.03;;;;;;;-0.36;91.66;100673.22;5027698;28;20509;-50
2022/03/05 02:20:52;;;;;;;0.20;0.10;;;;;;;-0.48;91.79;100678.19;5032094;28;20509;-51
2022/03/05 02:23:19;;;;;;;0.20;0.10;;;;;;;-0.35;92.25;100675.00;5031925;28;20506;-50
2022/03/05 02:26:02;;;;;;;0.20;0.10;;;;;;;-0.56;90.70;100677.13;5032192;28;20832;-50
2022/03/05 02:28:30;;;;;;;0.20;0.10;;;;;;;-0.70;92.31;100674.19;5030442;28;20885;-51
2022/03/05 02:30:58;;;;;;;0.30;0.20;;;;;;;-0.71;91.80;100669.81;5032448;28;20447;-51
2022/03/05 02:33:26;;;;;;;0.20;0.10;;;;;;;-0.60;92.64;100674.44;5031856;28;20483;-50
2022/03/05 02:35:53;;;;;;;0.87;0.77;;;;;;;-0.55;92.52;100674.53;5011896;28;20491;-51
2022/03/05 02:38:21;;;;;;;0.20;0.20;;;;;;;-0.82;91.06;100669.59;5019165;28;20456;-50
2022/03/05 02:40:49;;;;;;;0.20;0.10;;;;;;;-0.62;90.76;100675.25;5032306;28;20502;-50
2022/03/05 02:43:17;;;;;;;11.30;3.63;;;;;;;-0.81;91.00;100670.47;5028703;28;20475;-51
2022/03/05 02:45:45;;;;;;;0.20;0.10;;;;;;;-1.07;91.94;100668.13;5026757;28;20460;-51
2022/03/05 02:48:14;;;;;;;0.20;0.20;;;;;;;-0.98;92.01;100668.34;5019949;28;20460;-50
2022/03/05 02:50:43;;;;;;;0.20;0.10;;;;;;;-1.14;91.82;100671.41;5035823;28;20517;-51
2022/03/05 02:53:10;;;;;;;0.20;0.10;;;;;;;-1.16;92.56;100664.41;5035750;28;20467;-50
2022/03/05 02:55:37;;;;;;;0.20;0.10;;;;;;;-1.03;92.70;100661.25;5032659;28;20937;-51
2022/03/05 02:58:04;;;;;;;0.20;0.10;;;;;;;-1.37;91.38;100670.88;5023214;28;20631;-50
2022/03/05 03:00:32;;;;;;;0.20;0.10;;;;;;;-1.38;93.23;100671.69;5035375;28;21014;-50
2022/03/05 03:02:59;;;;;;;5.50;1.73;;;;;;;-1.47;92.76;100675.78;5035126;28;20475;-50
2022/03/05 03:05:26;;;;;;;0.20;0.10;;;;;;;-1.31;92.34;100668.41;5035353;28;20518;-51
2022/03/05 03:07:53;;;;;;;0.20;0.20;;;;;;;-1.20;92.99;100666.06;5024780;28;20809;-50
2022/03/05 03:10:20;;;;;;;1.53;0.97;;;;;;;-1.40;91.65;100669.88;5035399;28;20513;-50
2022/03/05 03:12:47;;;;;;;0.30;0.10;;;;;;;-1.51;92.52;100669.59;5035095;28;20864;-50
2022/03/05 03:15:15;;;;;;;0.20;0.10;;;;;;;-1.61;92.32;100665.00;5030606;28;20492;-49
2022/03/05 03:17:48;;;;;;;0.57;0.53;;;;;;;-1.57;92.79;100672.94;5025346;28;20447;-48
2022/03/05 03:20:17;;;;;;;0.20;0.10;;;;;;;-1.86;93.45;100673.88;5035108;28;20451;-49
2022/03/05 03:22:45;;;;;;;0.20;0.10;;;;;;;-2.09;95.55;100675.84;5034692;28;20447;-49
2022/03/05 03:25:11;;;;;;;0.20;0.10;;;;;;;-1.73;94.76;100672.50;5034972;28;20444;-49
2022/03/05 03:27:39;;;;;;;0.20;0.10;;;;;;;-1.82;94.19;100678.34;5029914;28;20824;-48
2022/03/05 03:30:08;;;;;;;0.20;0.20;;;;;;;-1.88;93.51;100673.84;5034821;28;20482;-49
2022/03/05 03:32:34;;;;;;;0.20;0.10;;;;;;;-1.85;92.85;100679.13;5034922;28;20455;-49
2022/03/05 03:35:02;;;;;;;0.30;0.23;;;;;;;-1.98;93.97;100674.44;5032058;28;20495;-49
2022/03/05 03:37:31;;;;;;;0.73;0.73;;;;;;;-1.89;92.27;100684.22;5011007;28;20506;-49
2022/03/05 03:39:59;;;;;;;0.80;0.80;;;;;;;-2.05;94.18;100682.03;5034497;28;20452;-49
2022/03/05 03:42:27;;;;;;;0.20;0.10;;;;;;;-2.29;94.97;100680.47;5031150;28;20521;-49
2022/03/05 03:44:54;;;;;;;1.37;1.37;;;;;;;-1.97;95.41;100681.41;5034317;28;20472;-49
2022/03/05 03:47:22;;;;;;;0.20;0.10;;;;;;;-2.14;94.15;100683.53;5026539;28;20455;-50
2022/03/05 03:49:50;;;;;;;0.20;0.10;;;;;;;-2.15;94.37;100684.38;5029159;28;20475;-48
2022/03/05 03:52:16;;;;;;;0.27;0.13;;;;;;;-2.09;94.48;100684.53;5034467;28;21020;-49
2022/03/05 03:54:45;;;;;;;1.13;1.03;;;;;;;-1.92;95.14;100686.72;5034256;28;20837;-48
2022/03/05 03:57:12;;;;;;;0.87;0.47;;;;;;;-1.95;94.48;100689.25;5004844;28;20453;-49
2022/03/05 03:59:38;;;;;;;2.53;1.67;;;;;;;-1.91;95.07;100689.41;5029385;28;20482;-48
2022/03/05 04:02:06;;;;;;;0.20;0.10;;;;;;;-2.21;95.30;100691.97;5034446;28;20443;-48
2022/03/05 04:04:33;;;;;;;0.20;0.10;;;;;;;-2.15;97.45;100679.16;5034019;28;20467;-48
2022/03/05 04:09:45;;;;;;;0.20;0.10;;;;;;;-2.22;96.02;100679.81;5032485;28;20448;-48
2022/03/05 04:12:11;;;;;;;0.20;0.10;;;;;;;-2.10;95.32;100676.69;5029052;28;20451;-49
2022/03/05 04:14:38;;;;;;;0.20;0.10;;;;;;;-2.21;94.96;100680.69;5033866;28;20483;-49
2022/03/05 04:17:06;;;;;;;0.20;0.10;;;;;;;-2.14;95.70;100675.72;5025118;28;20526;-49
2022/03/05 04:19:33;;;;;;;0.20;0.10;;;;;;;-2.10;95.84;100687.97;5032444;28;20502;-49
2022/03/05 04:22:00;;;;;;;0.20;0.10;;;;;;;-2.21;95.95;100671.16;5033787;28;21002;-49
2022/03/05 04:24:27;;;;;;;0.20;0.10;;;;;;;-2.29;96.09;100685.69;5033578;28;20905;-50
2022/03/05 04:26:54;;;;;;;0.20;0.10;;;;;;;-2.18;95.48;100680.81;5009717;28;20448;-49
2022/03/05 04:29:21;;;;;;;0.20;0.10;;;;;;;-2.19;95.38;100692.06;5024499;28;21012;-49
2022/03/05 04:31:47;;;;;;;0.20;0.10;;;;;;;-2.29;95.28;100685.69;5033755;28;20452;-49
2022/03/05 04:34:14;;;;;;;0.20;0.10;;;;;;;-2.27;94.41;100690.94;5033474;28;20529;-49
2022/03/05 04:36:41;;;;;;;0.20;0.10;;;;;;;-2.47;94.82;100693.84;5026149;28;20480;-49
2022/03/05 04:39:08;;;;;;;0.20;0.10;;;;;;;-2.74;96.44;100696.47;5033734;28;20878;-49
2022/03/05 04:41:34;;;;;;;5.03;3.13;;;;;;;-2.62;96.92;100693.34;5030201;28;20453;-49
2022/03/05 04:44:01;;;;;;;0.20;0.10;;;;;;;-2.57;96.54;100686.59;5033274;28;20468;-50
2022/03/05 04:46:28;;;;;;;0.20;0.10;;;;;;;-2.81;96.59;100683.22;5030978;28;20462;-49
2022/03/05 04:48:55;;;;;;;0.20;0.20;;;;;;;-2.58;96.43;100696.94;5033192;28;20487;-49
2022/03/05 04:51:21;;;;;;;0.20;0.10;;;;;;;-2.67;96.33;100686.25;5033538;28;20805;-49
2022/03/05 04:53:48;;;;;;;0.20;0.10;;;;;;;-2.68;96.63;100693.16;5033442;28;20464;-49
2022/03/05 04:56:15;;;;;;;0.30;0.10;;;;;;;-2.71;95.77;100693.09;5019518;28;20516;-50
2022/03/05 04:58:41;;;;;;;0.20;0.20;;;;;;;-2.84;95.61;100707.41;5009268;28;20471;-49
2022/03/05 05:01:09;;;;;;;0.20;0.10;;;;;;;-2.89;96.39;100708.97;5033273;28;20448;-50
2022/03/05 05:03:36;;;;;;;0.20;0.10;;;;;;;-2.87;96.01;100709.03;5033306;28;20478;-49
2022/03/05 05:06:03;;;;;;;0.20;0.10;;;;;;;-2.98;96.25;100706.09;5017621;28;20519;-49
2022/03/05 05:08:30;;;;;;;0.20;0.10;;;;;;;-3.18;96.42;100708.03;5028075;28;20484;-49
2022/03/05 05:10:56;;;;;;;0.20;0.10;;;;;;;-3.00;95.90;100711.25;5032882;28;20482;-49
2022/03/05 05:13:23;;;;;;;0.20;0.10;;;;;;;-3.00;97.03;100710.38;5015165;28;20550;-49
2022/03/05 05:15:50;;;;;;;0.97;0.97;;;;;;;-2.95;96.63;100716.59;5032240;28;20533;-49
2022/03/05 05:18:16;;;;;;;2.10;1.90;;;;;;;-3.06;94.66;100726.63;5021507;28;20547;-49
2022/03/05 05:20:43;;;;;;;0.30;0.10;;;;;;;-3.03;96.92;100728.44;5032825;28;20456;-49
2022/03/05 05:23:10;;;;;;;0.20;0.10;;;;;;;-3.14;96.12;100733.31;5024838;28;20525;-50
2022/03/05 05:25:36;;;;;;;0.20;0.10;;;;;;;-3.14;96.35;100735.91;5024092;28;20489;-49
2022/03/05 05:28:03;;;;;;;0.20;0.10;;;;;;;-3.13;95.71;100736.78;5023538;28;20455;-49
2022/03/05 05:30:30;;;;;;;0.20;0.10;;;;;;;-3.09;96.05;100734.34;5029803;28;20510;-49
2022/03/05 05:32:57;;;;;;;0.20;0.10;;;;;;;-3.12;96.18;100741.16;5018964;28;20456;-48
2022/03/05 05:35:24;;;;;;;0.20;0.10;;;;;;;-2.92;95.55;100734.00;5018577;28;20451;-49
2022/03/05 05:37:50;;;;;;;0.20;0.10;;;;;;;-3.03;94.73;100741.44;5021966;28;21018;-49
2022/03/05 05:40:17;;;;;;;0.20;0.10;;;;;;;-3.14;94.22;100737.63;5017499;28;20448;-49
2022/03/05 05:42:44;;;;;;;0.20;0.10;;;;;;;-3.37;94.45;100747.22;5029205;28;20455;-49
2022/03/05 05:45:11;;;;;;;0.20;0.10;;;;;;;-3.34;95.18;100744.72;5024588;28;20956;-49
2022/03/05 05:47:38;;;;;;;0.20;0.10;;;;;;;-3.52;95.11;100744.97;5018560;28;20992;-49
2022/03/05 05:50:06;;;;;;;0.30;0.27;;;;;;;-3.47;96.39;100750.31;5023002;28;20486;-49
2022/03/05 05:52:33;;;;;;;0.20;0.10;;;;;;;-3.53;96.49;100745.81;5017208;28;20456;-49
2022/03/05 05:55:00;;;;;;;0.20;0.10;;;;;;;-3.43;95.89;100741.81;5023707;28;20517;-49
2022/03/05 05:57:26;;;;;;;0.20;0.10;;;;;;;-3.36;95.94;100744.69;5029286;28;20558;-49
2022/03/05 05:59:53;;;;;;;0.20;0.20;;;;;;;-3.45;94.80;100746.94;5027623;28;20479;-50
2022/03/05 06:02:19;;;;;;;0.20;0.10;;;;;;;-3.34;94.03;100747.31;5018253;28;20523;-49
2022/03/05 06:04:46;;;;;;;0.20;0.10;;;;;;;-3.47;94.30;100746.00;5029820;28;20467;-49
2022/03/05 06:07:13;;;;;;;1.23;1.23;;;;;;;-3.50;93.99;100755.41;5029509;28;20509;-49
2022/03/05 06:09:39;;;;;;;0.87;0.87;;;;;;;-3.56;96.44;100758.69;5018673;28;20515;-51
2022/03/05 06:12:12;;;;;;;0.20;0.10;;;;;;;-3.51;95.67;100762.34;5014869;28;20458;-48
2022/03/05 06:14:38;;;;;;;0.30;0.20;;;;;;;-3.38;95.36;100764.53;5021923;28;20500;-48
2022/03/05 06:17:05;;;;;;;0.20;0.10;;;;;;;-3.52;94.97;100770.97;5029030;28;20550;-48
2022/03/05 06:19:31;;;;;;;0.20;0.10;;;;;;;-3.63;96.25;100767.09;5030416;28;20999;-48
2022/03/05 06:21:58;;;;;;;0.20;0.10;;;;;;;-3.48;95.54;100769.34;5017766;28;20483;-48
2022/03/05 06:24:25;;;;;;;0.20;0.10;;;;;;;-3.62;96.55;100772.34;5023798;28;20875;-48
2022/03/05 06:26:51;;;;;;;0.20;0.10;;;;;;;-3.54;98.57;100775.22;5035990;28;20494;-48
2022/03/05 06:29:18;;;;;;;0.20;0.10;;;;;;;-3.34;96.19;100783.72;5029272;28;20513;-48
2022/03/05 06:31:45;;;;;;;0.20;0.10;;;;;;;-3.46;96.93;100786.75;5033338;28;20483;-48
2022/03/05 06:34:11;;;;;;;0.20;0.10;;;;;;;-3.47;96.25;100791.91;5035713;28;20852;-48
2022/03/05 06:36:38;;;;;;;0.20;0.10;;;;;;;-3.35;96.61;100785.41;5033728;28;20891;-48
2022/03/05 06:39:04;;;;;;;0.20;0.10;;;;;;;-3.40;97.33;100784.38;5022726;28;20451;-48
2022/03/05 06:41:31;;;;;;;0.20;0.10;;;;;;;-3.14;97.25;100785.31;5032557;28;20452;-48
2022/03/05 06:43:58;;;;;;;0.20;0.20;;;;;;;-3.03;97.52;100793.44;5009560;28;20503;-49
2022/03/05 06:46:24;;;;;;;0.20;0.10;;;;;;;-2.97;97.59;100787.59;5022317;28;20452;-49
2022/03/05 06:48:51;;;;;;;1.33;1.30;;;;;;;-2.78;97.46;100779.53;5035606;28;20575;-49
2022/03/05 06:51:17;;;;;;;0.20;0.10;;;;;;;-2.69;97.17;100791.16;5035453;28;20967;-48
2022/03/05 06:53:44;;;;;;;0.20;0.10;;;;;;;-2.57;97.16;100793.25;5035656;28;20521;-49
2022/03/05 06:56:11;;;;;;;0.20;0.10;;;;;;;-2.55;97.27;100786.38;5035159;28;20526;-48
2022/03/05 06:58:37;;;;;;;0.20;0.20;;;;;;;-2.39;96.59;100803.38;5024660;28;20511;-49
2022/03/05 07:01:04;;;;;;;0.20;0.10;;;;;;;-2.38;96.93;100790.41;5018524;28;20453;-49
2022/03/05 07:03:31;;;;;;;0.20;0.10;;;;;;;-2.42;98.04;100798.06;5022447;28;20472;-49
2022/03/05 07:05:57;;;;;;;0.20;0.10;;;;;;;-2.34;97.97;100795.69;5028638;28;20503;-49
2022/03/05 07:08:24;;;;;;;0.20;0.10;;;;;;;-2.32;97.87;100800.13;5032465;28;20443;-49
2022/03/05 07:10:50;;;;;;;0.20;0.10;;;;;;;-2.01;97.08;100804.56;5034939;28;20455;-49
2022/03/05 07:13:17;;;;;;;10.10;1.53;;;;;;;-1.97;96.77;100805.53;5025084;28;20476;-49
2022/03/05 07:15:44;;;;;;;0.27;0.20;;;;;;;-1.97;96.41;100808.13;5035308;28;20452;-49
2022/03/05 07:18:11;;;;;;;0.77;0.77;;;;;;;-1.81;96.61;100802.53;5020365;28;20798;-49
2022/03/05 07:20:37;;;;;;;0.30;0.30;;;;;;;-1.77;95.84;100804.41;5018722;28;20449;-49
2022/03/05 07:23:04;;;;;;;0.20;0.10;;;;;;;-1.63;96.23;100805.69;5018629;28;20476;-49
2022/03/05 07:25:39;;;;;;;0.20;0.10;;;;;;;-1.63;95.67;100810.91;5029124;28;20456;-49
2022/03/05 07:28:08;;;;;;;0.20;0.10;;;;;;;-1.42;95.17;100809.72;5028210;28;20455;-49
2022/03/05 07:30:37;;;;;;;0.20;0.20;;;;;;;-1.31;95.59;100816.13;5028326;28;20944;-49
2022/03/05 07:33:04;;;;;;;2.10;2.10;;;;;;;-1.20;94.90;100804.28;5016677;28;20476;-53
2022/03/05 07:35:31;;;;;;;0.20;0.20;;;;;;;-1.21;94.88;100805.13;5026889;28;20506;-49
2022/03/05 07:37:57;;;;;;;0.40;0.40;;;;;;;-1.09;94.67;100813.28;5018880;28;20913;-49
2022/03/05 07:40:24;;;;;;;0.20;0.20;;;;;;;-0.97;94.43;100810.97;5026362;28;20454;-49
2022/03/05 07:42:51;;;;;;;0.20;0.10;;;;;;;-0.86;93.90;100807.75;5027685;28;20507;-49
2022/03/05 07:45:17;;;;;;;0.20;0.10;;;;;;;-0.72;94.05;100812.47;5028158;28;20520;-49
2022/03/05 07:47:44;;;;;;;0.20;0.10;;;;;;;-0.62;93.41;100814.50;5017966;28;20449;-49
2022/03/05 07:50:11;;;;;;;0.20;0.10;;;;;;;-0.59;93.62;100811.06;5029305;28;20447;-49
2022/03/05 07:52:37;;;;;;;1.03;1.03;;;;;;;-0.42;93.47;100817.56;5022554;28;20896;-49
2022/03/05 07:55:05;;;;;;;0.30;0.30;;;;;;;-0.37;94.54;100813.38;5028048;28;20925;-50
2022/03/05 07:57:33;;;;;;;0.20;0.10;;;;;;;-0.33;94.04;100809.09;5023973;28;20487;-50
2022/03/05 07:59:59;;;;;;;0.23;0.17;;;;;;;-0.20;94.06;100813.75;5027887;28;20458;-50
2022/03/05 08:02:46;;;;;;;0.80;0.80;;;;;;;-0.14;93.49;100813.00;5018101;28;20555;-49
2022/03/05 08:05:13;;;;;;;0.60;0.57;;;;;;;0.12;93.15;100809.25;5033778;28;20547;-49
2022/03/05 08:07:39;;;;;;;0.60;0.57;;;;;;;0.24;91.69;100812.13;5033605;28;20451;-49
2022/03/05 08:10:07;;;;;;;0.20;0.10;;;;;;;0.23;92.00;100810.38;5021413;28;20488;-49
2022/03/05 08:12:37;;;;;;;6.50;2.43;;;;;;;0.33;91.79;100821.03;5034032;28;20552;-50
2022/03/05 08:15:05;;;;;;;0.30;0.20;;;;;;;0.52;90.84;100815.31;5027910;28;20463;-49
2022/03/05 08:17:32;;;;;;;0.20;0.10;;;;;;;0.51;91.23;100817.06;5030950;28;20917;-49
2022/03/05 08:19:58;;;;;;;0.30;0.20;;;;;;;0.76;91.30;100818.44;5029144;28;20444;-49
2022/03/05 08:22:26;;;;;;;0.30;0.20;;;;;;;0.86;91.31;100816.88;5030153;28;20454;-50
2022/03/05 08:24:53;;;;;;;0.90;0.90;;;;;;;1.01;90.77;100818.91;5033945;28;20472;-49
2022/03/05 08:27:19;;;;;;;0.20;0.10;;;;;;;1.08;91.75;100807.69;5024721;28;20521;-49
2022/03/05 08:29:46;;;;;;;0.40;0.40;;;;;;;1.11;92.58;100815.59;5023291;28;20452;-49
2022/03/05 08:32:13;;;;;;;0.40;0.37;;;;;;;1.25;91.55;100818.47;5021035;28;20868;-50
2022/03/05 08:34:39;;;;;;;4.53;1.33;;;;;;;1.78;88.02;100822.84;5023971;28;20479;-50
2022/03/05 08:37:06;;;;;;;0.20;0.10;;;;;;;2.17;86.59;100826.03;5022625;28;21205;-50
2022/03/05 08:39:33;;;;;;;0.20;0.20;;;;;;;2.23;86.30;100820.88;5033974;28;20447;-50
2022/03/05 08:41:59;;;;;;;0.30;0.20;;;;;;;2.24;87.25;100823.53;5019782;28;20514;-50
2022/03/05 08:44:26;;;;;;;0.30;0.20;;;;;;;2.30;86.77;100828.84;5033028;28;20746;-50
2022/03/05 08:46:53;;;;;;;0.20;0.10;;;;;;;2.29;88.88;100826.19;5033597;28;20447;-51
2022/03/05 08:49:20;;;;;;;0.20;0.10;;;;;;;2.54;87.41;100817.78;5033822;28;20505;-50
2022/03/05 08:51:47;;;;;;;1.13;1.13;;;;;;;2.87;86.55;100821.66;5033587;28;20455;-50
2022/03/05 08:54:13;;;;;;;0.20;0.10;;;;;;;2.85;86.84;100813.75;5015915;28;20494;-53
2022/03/05 08:56:40;;;;;;;0.30;0.20;;;;;;;3.06;85.50;100820.13;5033197;28;20495;-50
2022/03/05 08:59:07;;;;;;;0.20;0.17;;;;;;;3.33;84.69;100809.88;5033366;28;20521;-50
2022/03/05 09:01:33;;;;;;;0.20;0.20;;;;;;;3.33;84.82;100809.00;5033430;28;20443;-50
2022/03/05 09:04:00;;;;;;;0.27;0.20;;;;;;;3.19;85.24;100815.00;5033410;28;20525;-50
2022/03/05 09:06:27;;;;;;;0.20;0.20;;;;;;;3.40;83.26;100806.44;5033382;28;20493;-50
2022/03/05 09:08:55;;;;;;;0.20;0.10;;;;;;;3.37;83.31;100809.03;5033226;28;21006;-50
2022/03/05 09:11:22;;;;;;;0.20;0.10;;;;;;;3.34;83.15;100809.03;5033029;28;20487;-50
2022/03/05 09:13:49;;;;;;;0.50;0.50;;;;;;;3.31;82.97;100811.63;5033950;28;20541;-48
2022/03/05 09:16:16;;;;;;;0.80;0.80;;;;;;;3.57;82.61;100806.59;5033686;28;20482;-48
2022/03/05 09:18:42;;;;;;;0.20;0.20;;;;;;;3.62;82.79;100806.63;5033614;28;20455;-47
2022/03/05 09:21:09;;;;;;;0.20;0.10;;;;;;;4.03;81.07;100804.28;5033058;28;20456;-48
2022/03/05 09:23:36;;;;;;;0.20;0.10;;;;;;;3.56;80.41;100805.72;5033352;28;20471;-47
2022/03/05 09:26:03;;;;;;;0.20;0.10;;;;;;;3.65;81.37;100809.28;5032948;28;21011;-47
2022/03/05 09:28:29;;;;;;;0.20;0.20;;;;;;;3.85;81.87;100803.31;5033321;28;21007;-48
2022/03/05 09:30:58;;;;;;;0.20;0.10;;;;;;;3.83;80.85;100801.50;5033425;28;20498;-47
2022/03/05 09:33:26;;;;;;;0.20;0.10;;;;;;;3.96;80.46;100800.72;5033380;28;20499;-47
2022/03/05 09:35:52;;;;;;;0.30;0.20;;;;;;;4.18;79.75;100806.13;5030646;28;20456;-47
2022/03/05 09:38:19;;;;;;;2.00;1.37;;;;;;;4.10;79.93;100801.69;5032841;28;20491;-47
2022/03/05 09:40:46;;;;;;;0.20;0.10;;;;;;;4.33;79.39;100807.09;5032948;28;20498;-47
2022/03/05 09:43:13;;;;;;;0.20;0.20;;;;;;;4.46;78.29;100808.91;5029743;28;20818;-48
2022/03/05 09:45:43;;;;;;;2.20;2.00;;;;;;;4.41;78.12;100807.13;5033181;28;20509;-47
2022/03/05 09:48:12;;;;;;;0.27;0.17;;;;;;;4.50;77.86;100807.16;5032858;28;20494;-48
2022/03/05 09:50:39;;;;;;;0.97;0.97;;;;;;;4.23;77.94;100809.66;5032995;28;20451;-47
2022/03/05 09:53:05;;;;;;;0.20;0.20;;;;;;;4.30;77.65;100801.81;5032720;28;20514;-47
2022/03/05 09:55:32;;;;;;;0.20;0.10;;;;;;;4.63;77.19;100810.72;5032053;28;20474;-47
2022/03/05 09:57:59;;;;;;;0.30;0.20;;;;;;;4.84;75.17;100800.28;5015108;28;21023;-47
2022/03/05 10:00:27;;;;;;;0.20;0.20;;;;;;;4.90;73.38;100802.03;5033099;28;20448;-48
2022/03/05 10:02:53;;;;;;;0.30;0.30;;;;;;;5.05;73.11;100797.69;5032764;28;20451;-47
2022/03/05 10:05:29;;;;;;;0.20;0.10;;;;;;;5.15;71.83;100802.97;5032865;28;20460;-47
2022/03/05 10:08:07;;;;;;;0.30;0.20;;;;;;;5.19;70.04;100799.47;5028674;28;20441;-48
2022/03/05 10:10:52;;;;;;;0.20;0.20;;;;;;;5.13;70.43;100795.06;5007398;28;20531;-49
2022/03/05 10:13:28;;;;;;;0.83;0.83;;;;;;;5.19;69.76;100802.97;5009967;28;20485;-48
2022/03/05 10:16:00;;;;;;;0.20;0.20;;;;;;;5.46;67.71;100794.22;5032830;28;20488;-48
2022/03/05 10:18:35;;;;;;;0.40;0.40;;;;;;;5.48;67.51;100787.22;5034312;28;20530;-48
2022/03/05 10:21:06;;;;;;;0.20;0.10;;;;;;;5.20;65.29;100788.03;5033914;28;20470;-48
2022/03/05 10:23:37;;;;;;;0.30;0.27;;;;;;;5.58;63.89;100794.22;5032851;28;21107;-48
2022/03/05 10:26:06;;;;;;;0.20;0.10;;;;;;;5.44;64.74;100792.47;5032111;28;20443;-47
2022/03/05 10:28:34;;;;;;;0.20;0.10;;;;;;;5.71;64.78;100789.81;5032100;28;20444;-50
2022/03/05 10:31:04;;;;;;;0.20;0.20;;;;;;;5.53;65.00;100788.09;5014622;28;20448;-48
2022/03/05 10:33:38;;;;;;;0.43;0.43;;;;;;;5.87;65.24;100791.56;5032040;28;20464;-48
2022/03/05 10:36:25;;;;;;;0.20;0.20;;;;;;;5.84;63.46;100782.78;5012299;28;20510;-48
2022/03/05 10:39:00;;;;;;;0.30;0.30;;;;;;;5.87;64.67;100788.91;5031811;28;20551;-48
2022/03/05 10:41:38;;;;;;;0.20;0.10;;;;;;;5.76;62.73;100782.81;5029880;28;20439;-48
2022/03/05 10:44:08;;;;;;;1.43;1.33;;;;;;;6.18;63.87;100775.72;5008612;28;20521;-48
2022/03/05 10:46:41;;;;;;;0.30;0.30;;;;;;;6.48;63.15;100772.09;5031819;28;20444;-50
2022/03/05 10:49:14;;;;;;;0.37;0.37;;;;;;;6.40;62.77;100771.22;5031929;28;20534;-50
2022/03/05 10:51:40;;;;;;;0.30;0.20;;;;;;;6.20;62.32;100772.19;5031659;28;20498;-50
2022/03/05 10:54:09;;;;;;;0.30;0.20;;;;;;;6.44;60.80;100772.97;5031749;28;20841;-49
2022/03/05 10:56:41;;;;;;;0.20;0.10;;;;;;;6.53;58.55;100762.38;5031711;28;20450;-50
2022/03/05 10:59:10;;;;;;;0.97;0.87;;;;;;;6.17;59.95;100764.28;5031750;28;20459;-50
2022/03/05 11:01:43;;;;;;;0.30;0.20;;;;;;;6.44;60.50;100759.75;5031754;28;20936;-50
2022/03/05 11:04:11;;;;;;;0.30;0.13;;;;;;;6.23;61.07;100764.25;5031684;28;20471;-49
2022/03/05 11:06:41;;;;;;;0.20;0.20;;;;;;;5.98;60.41;100764.31;5005530;28;20467;-52
2022/03/05 11:09:10;;;;;;;0.23;0.17;;;;;;;6.20;60.01;100761.63;5028263;28;20952;-51
2022/03/05 11:11:39;;;;;;;1.40;1.27;;;;;;;6.57;59.15;100753.53;5035222;28;20447;-52
2022/03/05 11:14:10;;;;;;;10.80;2.90;;;;;;;6.63;59.45;100755.28;5034829;28;20479;-52
2022/03/05 11:16:37;;;;;;;0.30;0.20;;;;;;;6.80;57.24;100756.94;5034912;28;20444;-53
2022/03/05 11:19:04;;;;;;;0.43;0.40;;;;;;;6.81;58.02;100760.47;5017688;28;20860;-52
2022/03/05 11:21:31;;;;;;;0.30;0.20;;;;;;;6.45;57.76;100750.97;5035448;28;20501;-51
2022/03/05 11:23:58;;;;;;;0.50;0.50;;;;;;;6.42;56.49;100754.47;5035885;28;20521;-51
2022/03/05 11:26:28;;;;;;;0.30;0.20;;;;;;;6.73;55.74;100749.97;5035105;28;20452;-52
2022/03/05 11:29:16;;;;;;;0.63;0.63;;;;;;;6.54;55.08;100746.50;5020931;28;20546;-52
2022/03/05 11:31:43;;;;;;;0.20;0.10;;;;;;;6.87;55.63;100743.72;5035445;28;20455;-51
2022/03/05 11:34:29;;;;;;;0.30;0.10;;;;;;;6.86;54.98;100739.31;5009376;28;20521;-52